createdAt,value
2018-06-14T00:00:42.048Z,35.90
2018-06-14T00:03:10.190Z,36.43
2018-06-14T00:05:38.291Z,38.20
2018-06-14T00:08:06.419Z,35.07
2018-06-14T00:10:34.523Z,36.83
2018-06-14T00:13:02.655Z,34.33
2018-06-14T00:15:30.752Z,36.03
2018-06-14T00:17:58.867Z,32.10
2018-06-14T00:20:26.975Z,29.57
2018-06-14T00:22:55.098Z,27.00
2018-06-14T00:25:23.196Z,32.53
2018-06-14T00:27:51.328Z,27.93
2018-06-14T00:30:19.423Z,30.17
2018-06-14T00:32:47.543Z,27.50
2018-06-14T00:35:15.615Z,27.57
2018-06-14T00:37:43.704Z,27.07
2018-06-14T00:40:11.799Z,24.17
2018-06-14T00:42:39.888Z,30.90
2018-06-14T00:45:08.084Z,30.43
2018-06-14T00:47:36.168Z,23.90
2018-06-14T00:50:04.279Z,32.20
2018-06-14T00:52:32.384Z,25.43
2018-06-14T00:55:00.451Z,35.53
2018-06-14T00:57:29.768Z,25.50
2018-06-14T00:59:58.028Z,27.70
2018-06-14T01:02:26.504Z,24.73
2018-06-14T01:04:54.596Z,24.77
2018-06-14T01:07:22.696Z,25.13
2018-06-14T01:09:50.787Z,21.10
2018-06-14T01:12:18.869Z,23.30
2018-06-14T01:14:46.955Z,21.53
2018-06-14T01:17:15.028Z,21.83
2018-06-14T01:19:43.137Z,22.00
2018-06-14T01:22:11.220Z,24.93
2018-06-14T01:24:39.315Z,21.87
2018-06-14T01:27:08.863Z,21.67
2018-06-14T01:29:36.978Z,21.47
2018-06-14T01:32:05.115Z,26.33
2018-06-14T01:34:33.393Z,23.73
2018-06-14T01:37:01.476Z,22.90
2018-06-14T01:39:29.653Z,20.33
2018-06-14T01:41:57.737Z,21.43
2018-06-14T01:44:25.831Z,22.10
2018-06-14T01:46:53.905Z,21.50
2018-06-14T01:49:22.036Z,20.10
2018-06-14T01:51:50.157Z,21.10
2018-06-14T01:54:18.248Z,24.97
2018-06-14T01:56:46.356Z,22.87
2018-06-14T01:59:14.476Z,24.73
2018-06-14T02:01:42.553Z,27.63
2018-06-14T02:04:10.652Z,25.47
2018-06-14T02:06:38.750Z,23.63
2018-06-14T02:09:06.917Z,24.10
2018-06-14T02:11:35.012Z,20.13
2018-06-14T02:14:03.333Z,19.93
2018-06-14T02:16:31.410Z,27.40
2018-06-14T02:18:59.528Z,25.60
2018-06-14T02:21:27.612Z,21.90
2018-06-14T02:23:55.719Z,18.60
2018-06-14T02:26:23.805Z,19.23
2018-06-14T02:28:51.896Z,17.33
2018-06-14T02:31:19.988Z,24.13
2018-06-14T02:33:48.100Z,18.37
2018-06-14T02:36:16.204Z,17.20
2018-06-14T02:38:44.308Z,21.63
2018-06-14T02:41:12.421Z,19.37
2018-06-14T02:43:40.529Z,19.80
2018-06-14T02:46:08.628Z,20.10
2018-06-14T02:48:36.705Z,18.80
2018-06-14T02:51:04.808Z,18.33
2018-06-14T02:53:32.880Z,21.27
2018-06-14T02:56:00.972Z,16.37
2018-06-14T02:58:29.045Z,18.20
2018-06-14T03:00:57.140Z,22.40
2018-06-14T03:03:25.228Z,21.63
2018-06-14T03:05:53.349Z,17.67
2018-06-14T03:08:21.460Z,19.23
2018-06-14T03:10:49.584Z,22.33
2018-06-14T03:13:17.673Z,20.30
2018-06-14T03:15:45.764Z,20.43
2018-06-14T03:18:13.844Z,17.80
2018-06-14T03:20:41.936Z,17.93
2018-06-14T03:23:10.004Z,18.23
2018-06-14T03:25:38.125Z,18.07
2018-06-14T03:28:06.212Z,24.63
2018-06-14T03:30:34.335Z,23.00
2018-06-14T03:33:02.412Z,22.97
2018-06-14T03:35:30.516Z,23.70
2018-06-14T03:37:58.592Z,24.77
2018-06-14T03:40:26.723Z,20.57
2018-06-14T03:42:54.865Z,24.13
2018-06-14T03:45:27.255Z,19.87
2018-06-14T03:47:55.337Z,22.37
2018-06-14T03:50:23.440Z,18.93
2018-06-14T03:52:51.576Z,17.60
2018-06-14T03:55:19.672Z,19.90
2018-06-14T03:57:47.752Z,20.93
2018-06-14T04:00:15.847Z,20.80
2018-06-14T04:02:43.938Z,20.83
2018-06-14T04:05:12.069Z,17.00
2018-06-14T04:07:40.157Z,17.87
2018-06-14T04:10:08.312Z,22.50
2018-06-14T04:12:36.356Z,20.37
2018-06-14T04:15:04.456Z,20.60
2018-06-14T04:17:32.547Z,17.83
2018-06-14T04:20:00.640Z,14.67
2018-06-14T04:22:28.736Z,14.60
2018-06-14T04:24:56.819Z,17.47
2018-06-14T04:27:24.942Z,16.83
2018-06-14T04:29:53.036Z,11.50
2018-06-14T04:32:21.132Z,12.10
2018-06-14T04:34:49.220Z,11.60
2018-06-14T04:37:17.320Z,9.67
2018-06-14T04:39:45.407Z,13.07
2018-06-14T04:42:13.532Z,13.13
2018-06-14T04:44:41.622Z,14.90
2018-06-14T04:47:09.716Z,13.60
2018-06-14T04:49:37.817Z,15.00
2018-06-14T04:52:05.952Z,14.10
2018-06-14T04:54:34.023Z,11.27
2018-06-14T04:57:02.126Z,13.87
2018-06-14T04:59:30.216Z,18.77
2018-06-14T05:01:58.308Z,15.30
2018-06-14T05:04:26.384Z,13.73
2018-06-14T05:06:54.471Z,16.37
2018-06-14T05:09:22.559Z,12.17
2018-06-14T05:11:50.651Z,11.87
2018-06-14T05:14:18.726Z,14.40
2018-06-14T05:16:46.843Z,11.60
2018-06-14T05:19:14.917Z,13.13
2018-06-14T05:21:43.034Z,12.07
2018-06-14T05:24:11.105Z,14.53
2018-06-14T05:26:39.191Z,16.03
2018-06-14T05:29:07.280Z,17.40
2018-06-14T05:31:35.348Z,17.40
2018-06-14T05:34:03.433Z,13.40
2018-06-14T05:36:31.512Z,21.60
2018-06-14T05:38:59.605Z,14.98
2018-06-14T05:41:27.685Z,17.63
2018-06-14T05:43:55.828Z,17.03
2018-06-14T05:46:23.900Z,18.60
2018-06-14T05:48:52.004Z,15.00
2018-06-14T05:51:20.092Z,16.30
2018-06-14T05:53:48.180Z,18.97
2018-06-14T05:56:16.268Z,19.10
2018-06-14T05:58:44.357Z,17.20
2018-06-14T06:01:12.424Z,16.00
2018-06-14T06:03:40.516Z,15.97
2018-06-14T06:06:08.588Z,17.37
2018-06-14T06:08:36.689Z,13.37
2018-06-14T06:11:04.763Z,22.83
2018-06-14T06:13:32.852Z,14.10
2018-06-14T06:16:00.945Z,15.50
2018-06-14T06:18:29.032Z,16.83
2018-06-14T06:20:57.100Z,14.97
2018-06-14T06:23:25.211Z,14.33
2018-06-14T06:25:53.284Z,15.87
2018-06-14T06:28:21.421Z,16.87
2018-06-14T06:30:49.500Z,13.60
2018-06-14T06:33:17.635Z,12.50
2018-06-14T06:35:45.695Z,17.63
2018-06-14T06:38:13.781Z,11.77
2018-06-14T06:40:41.866Z,11.93
2018-06-14T06:43:09.967Z,14.10
2018-06-14T06:45:38.037Z,12.50
2018-06-14T06:48:06.132Z,13.20
2018-06-14T06:50:34.242Z,10.20
2018-06-14T06:53:02.673Z,12.50
2018-06-14T06:55:30.756Z,12.20
2018-06-14T06:57:58.872Z,12.27
2018-06-14T07:00:26.952Z,11.93
2018-06-14T07:02:55.040Z,14.60
2018-06-14T07:05:23.143Z,15.53
2018-06-14T07:07:51.335Z,10.77
2018-06-14T07:10:19.439Z,9.33
2018-06-14T07:12:47.518Z,10.93
2018-06-14T07:15:15.620Z,7.30
2018-06-14T07:17:43.708Z,9.40
2018-06-14T07:20:11.812Z,8.93
2018-06-14T07:22:39.903Z,9.57
2018-06-14T07:25:08.020Z,7.90
2018-06-14T07:27:36.116Z,7.23
2018-06-14T07:30:04.644Z,9.00
2018-06-14T07:32:32.719Z,6.70
2018-06-14T07:35:00.814Z,11.10
2018-06-14T07:37:28.901Z,8.30
2018-06-14T07:39:57.005Z,13.63
2018-06-14T07:42:25.092Z,10.43
2018-06-14T07:44:53.184Z,8.90
2018-06-14T07:47:21.316Z,7.80
2018-06-14T07:49:49.424Z,6.93
2018-06-14T07:52:17.532Z,6.77
2018-06-14T07:54:45.636Z,8.27
2018-06-14T07:57:13.724Z,6.50
2018-06-14T07:59:41.855Z,7.63
2018-06-14T08:02:09.936Z,8.00
2018-06-14T08:04:38.033Z,7.30
2018-06-14T08:07:06.104Z,5.77
2018-06-14T08:09:34.207Z,10.77
2018-06-14T08:12:02.285Z,12.23
2018-06-14T08:14:30.382Z,5.80
2018-06-14T08:16:58.459Z,6.37
2018-06-14T08:19:26.561Z,7.60
2018-06-14T08:21:54.632Z,5.90
2018-06-14T08:24:22.732Z,10.20
2018-06-14T08:26:50.808Z,7.53
2018-06-14T08:29:18.898Z,5.33
2018-06-14T08:31:46.980Z,8.43
2018-06-14T08:34:15.060Z,7.73
2018-06-14T08:36:43.158Z,5.90
2018-06-14T08:39:11.232Z,6.03
2018-06-14T08:41:39.324Z,7.70
2018-06-14T08:44:07.400Z,7.20
2018-06-14T08:46:35.493Z,7.67
2018-06-14T08:49:03.568Z,5.57
2018-06-14T08:51:31.680Z,4.67
2018-06-14T08:53:59.753Z,10.23
2018-06-14T08:56:27.852Z,5.80
2018-06-14T08:58:55.916Z,5.30
2018-06-14T09:01:24.007Z,6.00
2018-06-14T09:03:52.721Z,5.70
2018-06-14T09:06:20.816Z,7.03
2018-06-14T09:08:49.019Z,5.60
2018-06-14T09:11:17.100Z,6.33
2018-06-14T09:13:45.168Z,5.00
2018-06-14T09:16:13.273Z,5.80
2018-06-14T09:18:41.360Z,5.70
2018-06-14T09:21:09.466Z,4.93
2018-06-14T09:23:37.580Z,5.40
2018-06-14T09:26:05.677Z,6.27
2018-06-14T09:28:33.752Z,8.70
2018-06-14T09:31:01.862Z,6.90
2018-06-14T09:33:29.960Z,5.17
2018-06-14T09:35:58.411Z,5.57
2018-06-14T09:38:26.475Z,6.33
2018-06-14T09:40:54.563Z,4.23
2018-06-14T09:43:22.640Z,3.87
2018-06-14T09:45:50.729Z,3.27
2018-06-14T09:48:18.799Z,4.10
2018-06-14T09:50:46.912Z,4.50
2018-06-14T09:53:14.989Z,6.43
2018-06-14T09:55:43.076Z,6.60
2018-06-14T09:58:11.159Z,8.40
2018-06-14T10:00:39.249Z,4.30
2018-06-14T10:03:07.344Z,4.83
2018-06-14T10:05:35.432Z,4.00
2018-06-14T10:08:03.526Z,5.77
2018-06-14T10:10:31.588Z,5.60
2018-06-14T10:12:59.688Z,4.50
2018-06-14T10:15:27.773Z,4.00
2018-06-14T10:17:55.863Z,5.43
2018-06-14T10:20:23.973Z,5.00
2018-06-14T10:22:52.077Z,5.33
2018-06-14T10:25:20.155Z,8.20
2018-06-14T10:27:48.240Z,5.00
2018-06-14T10:30:16.300Z,4.23
2018-06-14T10:32:44.383Z,6.30
2018-06-14T10:35:12.448Z,5.67
2018-06-14T10:37:40.548Z,5.97
2018-06-14T10:40:08.709Z,4.60
2018-06-14T10:42:36.792Z,11.23
2018-06-14T10:45:04.871Z,6.23
2018-06-14T10:47:32.965Z,7.27
2018-06-14T10:50:01.036Z,7.90
2018-06-14T10:52:29.210Z,4.73
2018-06-14T10:54:57.236Z,6.23
2018-06-14T10:57:25.372Z,7.30
2018-06-14T10:59:53.449Z,5.20
2018-06-14T11:02:21.564Z,4.30
2018-06-14T11:04:49.652Z,4.50
2018-06-14T11:07:17.752Z,5.97
2018-06-14T11:09:45.836Z,6.00
2018-06-14T11:12:13.946Z,5.50
2018-06-14T11:14:42.033Z,6.07
2018-06-14T11:17:10.124Z,3.70
2018-06-14T11:19:38.204Z,6.10
2018-06-14T11:22:06.392Z,6.00
2018-06-14T11:24:34.479Z,7.10
2018-06-14T11:27:02.581Z,6.70
2018-06-14T11:29:30.680Z,5.43
2018-06-14T11:31:58.776Z,4.90
2018-06-14T11:34:26.852Z,5.47
2018-06-14T11:36:54.964Z,5.63
2018-06-14T11:39:23.060Z,6.23
2018-06-14T11:41:51.136Z,5.73
2018-06-14T11:44:19.231Z,5.83
2018-06-14T11:46:47.408Z,6.90
2018-06-14T11:49:15.511Z,5.83
2018-06-14T11:51:43.614Z,5.00
2018-06-14T11:54:11.859Z,5.80
2018-06-14T11:56:39.932Z,5.83
2018-06-14T11:59:08.028Z,6.40
2018-06-14T12:01:36.105Z,5.87
2018-06-14T12:04:04.206Z,10.90
2018-06-14T12:06:32.283Z,6.80
2018-06-14T12:09:00.377Z,5.90
2018-06-14T12:11:28.456Z,6.00
2018-06-14T12:13:56.539Z,4.13
2018-06-14T12:16:24.608Z,5.30
2018-06-14T12:18:52.703Z,5.37
2018-06-14T12:21:20.840Z,4.53
2018-06-14T12:23:48.888Z,5.60
2018-06-14T12:26:16.967Z,5.57
2018-06-14T12:28:45.060Z,5.87
2018-06-14T12:31:13.144Z,5.63
2018-06-14T12:33:41.243Z,6.00
2018-06-14T12:36:09.320Z,6.37
2018-06-14T12:38:37.419Z,5.30
2018-06-14T12:41:05.504Z,6.63
2018-06-14T12:43:33.617Z,6.93
2018-06-14T12:46:01.702Z,4.33
2018-06-14T12:48:29.813Z,9.23
2018-06-14T12:50:57.904Z,4.90
2018-06-14T12:53:25.997Z,4.70
2018-06-14T12:55:54.077Z,4.07
2018-06-14T12:58:22.181Z,10.37
2018-06-14T13:00:50.247Z,5.40
2018-06-14T13:03:18.348Z,8.60
2018-06-14T13:05:46.415Z,4.47
2018-06-14T13:08:14.511Z,5.53
2018-06-14T13:10:42.576Z,5.73
2018-06-14T13:13:10.644Z,5.60
2018-06-14T13:15:38.740Z,5.03
2018-06-14T13:18:06.804Z,5.00
2018-06-14T13:20:34.896Z,4.50
2018-06-14T13:23:02.968Z,7.27
2018-06-14T13:25:31.063Z,5.20
2018-06-14T13:27:59.148Z,9.27
2018-06-14T13:30:27.232Z,3.90
2018-06-14T13:32:55.300Z,5.00
2018-06-14T13:35:23.399Z,6.23
2018-06-14T13:37:51.472Z,5.07
2018-06-14T13:40:19.559Z,6.30
2018-06-14T13:42:47.684Z,4.27
2018-06-14T13:45:15.727Z,5.03
2018-06-14T13:47:43.805Z,4.33
2018-06-14T13:50:11.888Z,5.20
2018-06-14T13:52:39.985Z,6.23
2018-06-14T13:55:08.068Z,6.50
2018-06-14T13:57:36.149Z,7.07
2018-06-14T14:00:04.351Z,5.53
2018-06-14T14:02:32.440Z,4.13
2018-06-14T14:05:00.527Z,5.10
2018-06-14T14:07:29.328Z,5.97
2018-06-14T14:09:58.335Z,3.77
2018-06-14T14:12:27.107Z,3.93
2018-06-14T14:14:55.541Z,5.83
2018-06-14T14:17:23.867Z,4.97
2018-06-14T14:19:51.951Z,5.57
2018-06-14T14:22:20.028Z,4.03
2018-06-14T14:24:48.135Z,4.40
2018-06-14T14:27:16.211Z,4.13
2018-06-14T14:29:44.304Z,6.37
2018-06-14T14:32:12.384Z,4.23
2018-06-14T14:34:40.484Z,4.27
2018-06-14T14:37:08.615Z,4.97
2018-06-14T14:39:36.692Z,4.80
2018-06-14T14:42:04.772Z,4.87
2018-06-14T14:44:33.253Z,7.60
2018-06-14T14:47:01.341Z,5.00
2018-06-14T14:49:29.412Z,4.80
2018-06-14T14:51:57.509Z,4.37
2018-06-14T14:54:25.579Z,3.80
2018-06-14T14:56:53.675Z,3.40
2018-06-14T14:59:21.747Z,3.90
2018-06-14T15:01:50.136Z,4.43
2018-06-14T15:04:18.211Z,3.60
2018-06-14T15:06:46.300Z,3.20
2018-06-14T15:09:14.367Z,3.57
2018-06-14T15:11:42.444Z,3.70
2018-06-14T15:14:10.544Z,4.10
2018-06-14T15:16:38.616Z,4.70
2018-06-14T15:19:06.756Z,3.77
2018-06-14T15:21:34.842Z,4.10
2018-06-14T15:24:02.972Z,3.47
2018-06-14T15:26:31.076Z,2.63
2018-06-14T15:28:59.151Z,4.30
2018-06-14T15:31:27.249Z,3.20
2018-06-14T15:33:55.430Z,4.43
2018-06-14T15:36:23.540Z,4.67
2018-06-14T15:38:51.636Z,3.70
2018-06-14T15:41:19.724Z,4.10
2018-06-14T15:43:47.804Z,6.23
2018-06-14T15:46:15.898Z,6.50
2018-06-14T15:48:44.000Z,6.17
2018-06-14T15:51:12.121Z,3.10
2018-06-14T15:53:40.188Z,3.77
2018-06-14T15:56:44.908Z,3.37
2018-06-14T15:59:15.039Z,3.13
2018-06-14T16:01:43.121Z,7.50
2018-06-14T16:04:11.379Z,4.40
2018-06-14T16:06:39.464Z,4.80
2018-06-14T16:09:09.155Z,3.17
2018-06-14T16:11:37.323Z,6.27
2018-06-14T16:14:05.495Z,2.80
2018-06-14T16:16:33.588Z,4.07
2018-06-14T16:19:01.661Z,3.30
2018-06-14T16:21:30.771Z,3.90
2018-06-14T16:23:58.861Z,4.23
2018-06-14T16:26:26.940Z,5.50
2018-06-14T16:28:55.029Z,5.40
2018-06-14T16:31:23.092Z,7.40
2018-06-14T16:33:51.172Z,4.90
2018-06-14T16:36:19.247Z,4.80
2018-06-14T16:38:47.348Z,3.67
2018-06-14T16:41:15.416Z,3.43
2018-06-14T16:43:43.508Z,5.37
2018-06-14T16:46:11.576Z,4.53
2018-06-14T16:48:39.663Z,7.10
2018-06-14T16:51:07.750Z,6.00
2018-06-14T16:53:35.844Z,4.70
2018-06-14T16:56:03.971Z,5.80
2018-06-14T16:58:32.040Z,4.10
2018-06-14T17:01:00.126Z,4.83
2018-06-14T17:03:28.229Z,7.90
2018-06-14T17:05:56.314Z,8.63
2018-06-14T17:08:24.405Z,7.93
2018-06-14T17:10:52.473Z,5.70
2018-06-14T17:13:20.613Z,8.13
2018-06-14T17:15:48.687Z,4.10
2018-06-14T17:18:16.780Z,3.30
2018-06-14T17:20:44.855Z,4.53
2018-06-14T17:23:12.943Z,4.20
2018-06-14T17:25:41.024Z,3.50
2018-06-14T17:28:09.106Z,3.30
2018-06-14T17:30:37.176Z,4.50
2018-06-14T17:33:05.268Z,5.00
2018-06-14T17:35:33.350Z,3.13
2018-06-14T17:38:01.448Z,3.83
2018-06-14T17:40:29.532Z,4.60
2018-06-14T17:42:57.620Z,4.13
2018-06-14T17:45:25.699Z,4.40
2018-06-14T17:47:53.768Z,3.63
2018-06-14T17:50:21.868Z,3.00
2018-06-14T17:52:49.961Z,4.07
2018-06-14T17:55:18.061Z,4.40
2018-06-14T17:57:46.127Z,3.20
2018-06-14T18:00:14.297Z,3.27
2018-06-14T18:02:42.355Z,4.37
2018-06-14T18:05:10.672Z,4.63
2018-06-14T18:07:39.357Z,5.43
2018-06-14T18:10:06.981Z,4.40
2018-06-14T18:12:35.071Z,4.57
2018-06-14T18:15:03.298Z,3.30
2018-06-14T18:17:31.339Z,5.67
2018-06-14T18:19:59.435Z,3.47
2018-06-14T18:22:27.520Z,3.90
2018-06-14T18:24:55.607Z,4.90
2018-06-14T18:27:23.750Z,3.87
2018-06-14T18:29:51.820Z,4.70
2018-06-14T18:32:19.948Z,3.90
2018-06-14T18:34:48.108Z,3.60
2018-06-14T18:37:16.176Z,4.30
2018-06-14T18:39:44.276Z,4.10
2018-06-14T18:42:12.368Z,4.90
2018-06-14T18:44:40.536Z,5.00
2018-06-14T18:47:08.566Z,3.83
2018-06-14T18:49:36.695Z,4.23
2018-06-14T18:52:04.829Z,4.37
2018-06-14T18:54:32.945Z,7.80
2018-06-14T18:57:01.035Z,3.83
2018-06-14T18:59:29.581Z,4.07
2018-06-14T19:01:57.665Z,5.80
2018-06-14T19:04:25.749Z,6.10
2018-06-14T19:06:53.851Z,4.33
2018-06-14T19:09:22.000Z,6.40
2018-06-14T19:11:50.511Z,3.87
2018-06-14T19:14:18.615Z,4.73
2018-06-14T19:16:46.713Z,4.33
2018-06-14T19:19:14.787Z,4.47
2018-06-14T19:21:42.877Z,4.40
2018-06-14T19:24:10.945Z,5.90
2018-06-14T19:26:39.037Z,4.80
2018-06-14T19:29:07.130Z,5.03
2018-06-14T19:31:35.212Z,5.90
2018-06-14T19:34:03.337Z,5.00
2018-06-14T19:36:31.429Z,7.47
2018-06-14T19:38:59.504Z,6.20
2018-06-14T19:41:27.601Z,7.40
2018-06-14T19:43:55.856Z,5.87
2018-06-14T19:46:23.952Z,5.90
2018-06-14T19:48:52.352Z,8.17
2018-06-14T19:51:20.604Z,5.57
2018-06-14T19:53:48.908Z,5.50
2018-06-14T19:56:17.000Z,5.70
2018-06-14T19:58:45.072Z,7.13
2018-06-14T20:01:13.264Z,5.67
2018-06-14T20:03:41.336Z,6.27
2018-06-14T20:06:09.429Z,9.67
2018-06-14T20:08:37.491Z,7.13
2018-06-14T20:11:05.752Z,5.83
2018-06-14T20:13:33.832Z,6.63
2018-06-14T20:16:02.240Z,5.50
2018-06-14T20:18:30.307Z,6.93
2018-06-14T20:20:58.458Z,13.63
2018-06-14T20:23:26.525Z,5.23
2018-06-14T20:25:54.976Z,6.53
2018-06-14T20:28:23.141Z,6.40
2018-06-14T20:30:51.297Z,6.50
2018-06-14T20:33:19.580Z,6.00
2018-06-14T20:35:48.023Z,6.20
2018-06-14T20:38:16.196Z,7.30
2018-06-14T20:40:44.406Z,9.50
2018-06-14T20:43:12.593Z,6.47
2018-06-14T20:45:40.781Z,10.73
2018-06-14T20:48:08.998Z,7.80
2018-06-14T20:50:37.244Z,11.30
2018-06-14T20:53:05.617Z,5.93
2018-06-14T20:55:33.943Z,8.43
2018-06-14T20:58:02.082Z,6.10
2018-06-14T21:00:30.156Z,6.90
2018-06-14T21:02:58.603Z,9.07
2018-06-14T21:05:26.676Z,10.13
2018-06-14T21:07:54.756Z,8.90
2018-06-14T21:10:22.828Z,10.93
2018-06-14T21:12:50.915Z,7.50
2018-06-14T21:15:19.004Z,12.00
2018-06-14T21:17:47.088Z,5.90
2018-06-14T21:20:15.172Z,5.10
2018-06-14T21:22:43.260Z,5.50
2018-06-14T21:25:11.335Z,8.87
2018-06-14T21:27:39.480Z,6.97
2018-06-14T21:30:07.560Z,8.60
2018-06-14T21:32:35.656Z,7.23
2018-06-14T21:35:03.731Z,9.33
2018-06-14T21:37:31.816Z,6.53
2018-06-14T21:39:59.935Z,6.80
2018-06-14T21:42:27.988Z,6.60
2018-06-14T21:44:56.056Z,5.30
2018-06-14T21:47:24.147Z,6.57
2018-06-14T21:52:23.512Z,7.83
2018-06-14T21:54:51.588Z,7.13
2018-06-14T21:57:19.680Z,7.40
2018-06-14T21:59:47.776Z,7.57
2018-06-14T22:02:15.886Z,8.20
2018-06-14T22:04:44.016Z,6.73
2018-06-14T22:07:13.927Z,7.10
2018-06-14T22:09:42.627Z,6.90
2018-06-14T22:12:11.100Z,11.37
2018-06-14T22:14:39.388Z,5.90
2018-06-14T22:17:07.751Z,8.20
2018-06-14T22:19:35.844Z,6.50
2018-06-14T22:22:03.927Z,7.70
2018-06-14T22:24:32.031Z,9.37
2018-06-14T22:27:00.132Z,9.33
2018-06-14T22:29:28.736Z,7.77
2018-06-14T22:31:56.991Z,7.20
2018-06-14T22:34:30.708Z,8.53
2018-06-14T22:36:58.792Z,10.80
2018-06-14T22:39:26.895Z,9.63
2018-06-14T22:41:54.971Z,7.50
2018-06-14T22:44:23.169Z,8.80
2018-06-14T22:46:51.184Z,10.80
2018-06-14T22:49:19.285Z,7.20
2018-06-14T22:51:52.940Z,6.73
2018-06-14T22:54:21.040Z,7.93
2018-06-14T22:56:49.128Z,13.30
2018-06-14T22:59:17.220Z,8.47
2018-06-14T23:01:52.335Z,7.70
2018-06-14T23:04:25.856Z,10.03
2018-06-14T23:06:54.048Z,8.83
2018-06-14T23:10:41.348Z,8.10
2018-06-14T23:13:13.652Z,8.73
2018-06-14T23:15:41.757Z,10.73
2018-06-14T23:18:09.864Z,8.57
2018-06-14T23:20:38.143Z,9.40
2018-06-14T23:23:06.756Z,9.37
2018-06-14T23:25:35.358Z,10.90
2018-06-14T23:28:03.460Z,10.20
2018-06-14T23:30:31.563Z,12.63
2018-06-14T23:32:59.736Z,10.20
2018-06-14T23:35:27.846Z,10.30
2018-06-14T23:37:55.934Z,14.53
2018-06-14T23:40:24.061Z,11.30
2018-06-14T23:42:52.139Z,9.67
2018-06-14T23:45:20.568Z,12.23
2018-06-14T23:47:48.641Z,9.63
2018-06-14T23:50:16.736Z,11.60
2018-06-14T23:52:44.824Z,17.33
2018-06-14T23:55:12.913Z,11.23
2018-06-14T23:57:40.980Z,9.23
